createdAt,value
2023-04-18T09:00:53.209Z,20.4
2023-04-18T09:11:02.500Z,20.2
2023-04-18T09:21:04.383Z,20.4
2023-04-18T09:31:06.931Z,20.1
2023-04-18T09:41:09.474Z,20.4
2023-04-18T09:51:11.438Z,21.2
2023-04-18T10:01:13.504Z,21.6
2023-04-18T10:21:17.840Z,22
2023-04-18T10:31:20.400Z,22.1
2023-04-18T10:41:22.149Z,22.3
2023-04-18T10:51:23.943Z,22.4
2023-04-18T11:01:26.772Z,22.5
2023-04-18T11:21:30.911Z,21.6
2023-04-18T11:31:33.279Z,21.9
2023-04-18T11:41:35.054Z,21.6
2023-04-18T11:51:37.726Z,21.6
2023-04-18T12:01:39.714Z,21.9
2023-04-18T12:11:42.011Z,21.8
2023-04-18T12:21:44.668Z,21.8
2023-04-18T12:31:46.457Z,22.1
2023-04-18T12:41:49.882Z,22.5
2023-04-18T12:51:51.403Z,22.6
2023-04-18T13:01:53.157Z,22.7
2023-04-18T13:11:55.237Z,22.7
2023-04-18T13:21:56.997Z,23
2023-04-18T13:31:58.941Z,23.4
2023-04-18T13:42:01.534Z,24
2023-04-18T13:52:03.931Z,24.3
2023-04-18T14:12:07.800Z,24.3
2023-04-18T14:22:09.629Z,23.9
2023-04-18T14:32:11.355Z,23.6
2023-04-18T14:42:13.558Z,23.6
2023-04-18T14:52:15.755Z,23.6
2023-04-18T15:02:18.016Z,23.5
2023-04-18T15:12:20.024Z,23.3
2023-04-18T15:22:21.882Z,23.3
2023-04-18T15:32:23.927Z,23.6
2023-04-18T15:42:25.590Z,24
2023-04-18T15:52:28.216Z,23.9
2023-04-18T16:02:30.495Z,24.1
2023-04-18T16:12:32.843Z,24.2
2023-04-18T16:22:35.273Z,24.2
2023-04-18T16:32:37.630Z,24.3
2023-04-18T16:42:39.736Z,24.4
2023-04-18T17:02:44.038Z,24.4
2023-04-18T17:12:46.151Z,24.4
2023-04-18T17:22:48.129Z,24.4
2023-04-18T17:32:50.278Z,24.4
2023-04-18T17:42:52.820Z,24.3
2023-04-18T17:52:54.771Z,24.1
2023-04-18T18:02:56.859Z,23.9
2023-04-18T18:12:59.105Z,23.7
2023-04-18T18:23:01.768Z,23.4
2023-04-18T18:33:03.495Z,23.2
2023-04-18T18:43:05.158Z,22.9
2023-04-18T18:53:07.583Z,22.7
2023-04-18T19:03:10.277Z,22.4
2023-04-18T19:23:14.581Z,22.1
2023-04-18T20:03:23.117Z,21.5
2023-04-18T20:23:27.201Z,21.4
2023-04-18T20:33:29.106Z,21.3
2023-04-18T20:43:31.549Z,21.2
2023-04-18T20:53:33.861Z,21.2
2023-04-18T21:03:36.514Z,21.1
2023-04-18T21:23:41.048Z,21
2023-04-18T21:33:43.232Z,21
2023-04-18T21:43:45.625Z,20.9
2023-04-18T21:53:47.390Z,20.9
2023-04-18T22:03:50.119Z,20.9
2023-04-18T22:13:51.719Z,20.9
2023-04-18T22:23:53.490Z,20.8
2023-04-18T22:53:59.680Z,20.7
2023-04-18T23:04:02.082Z,20.7
2023-04-18T23:14:04.515Z,20.7
2023-04-18T23:34:08.814Z,20.7
2023-04-18T23:54:13.378Z,20.6
